sensor_id;sensor_type;location;lat;lon;timestamp;pressure;altitude;pressure_sealevel;temperature;humidity
20037;BME280;10179;42.640;23.312;2023-05-23T00:00:41;93586.75;;;16.17;58.61
20037;BME280;10179;42.640;23.312;2023-05-23T00:03:06;93435.19;;;15.17;58.24
20037;BME280;10179;42.640;23.312;2023-05-23T00:05:33;93545.81;;;15.83;58.21
20037;BME280;10179;42.640;23.312;2023-05-23T00:07:59;93574.75;;;15.99;58.08
20037;BME280;10179;42.640;23.312;2023-05-23T00:10:25;93523.47;;;15.58;58.24
20037;BME280;10179;42.640;23.312;2023-05-23T00:12:50;93418.59;;;14.84;58.46
20037;BME280;10179;42.640;23.312;2023-05-23T00:15:16;93564.41;;;15.88;58.38
20037;BME280;10179;42.640;23.312;2023-05-23T00:17:42;93563.59;;;15.87;58.72
20037;BME280;10179;42.640;23.312;2023-05-23T00:20:09;93565.72;;;15.85;58.61
20037;BME280;10179;42.640;23.312;2023-05-23T00:22:36;93542.81;;;15.64;58.62
20037;BME280;10179;42.640;23.312;2023-05-23T00:25:05;93565.72;;;15.85;58.61
20037;BME280;10179;42.640;23.312;2023-05-23T00:27:30;93564.66;;;15.86;58.51
20037;BME280;10179;42.640;23.312;2023-05-23T00:29:55;93382.81;;;14.61;58.27
20037;BME280;10179;42.640;23.312;2023-05-23T00:32:21;93510.75;;;15.55;58.37
20037;BME280;10179;42.640;23.312;2023-05-23T00:34:46;93537.03;;;15.67;58.48
20037;BME280;10179;42.640;23.312;2023-05-23T00:37:12;93558.03;;;15.89;58.27
20037;BME280;10179;42.640;23.312;2023-05-23T00:39:38;93514.13;;;15.40;58.16
20037;BME280;10179;42.640;23.312;2023-05-23T00:42:04;93564.91;;;15.85;58.34
20037;BME280;10179;42.640;23.312;2023-05-23T00:44:30;93610.22;;;15.88;58.31
20037;BME280;10179;42.640;23.312;2023-05-23T00:46:56;93520.56;;;15.60;58.34
20037;BME280;10179;42.640;23.312;2023-05-23T00:49:22;93450.22;;;15.11;58.44
20037;BME280;10179;42.640;23.312;2023-05-23T00:51:49;93553.03;;;15.92;58.66
20037;BME280;10179;42.640;23.312;2023-05-23T00:54:16;93551.44;;;15.91;58.34
20037;BME280;10179;42.640;23.312;2023-05-23T00:56:42;93422.97;;;15.11;58.32
20037;BME280;10179;42.640;23.312;2023-05-23T00:59:08;93045.00;;;12.64;58.10
20037;BME280;10179;42.640;23.312;2023-05-23T01:01:33;93406.78;;;14.97;58.10
20037;BME280;10179;42.640;23.312;2023-05-23T01:04:02;93564.16;;;15.94;58.49
20037;BME280;10179;42.640;23.312;2023-05-23T01:06:28;93563.38;;;15.99;58.22
20037;BME280;10179;42.640;23.312;2023-05-23T01:08:54;93425.63;;;15.16;58.36
20037;BME280;10179;42.640;23.312;2023-05-23T01:11:29;93532.34;;;15.89;58.34
20037;BME280;10179;42.640;23.312;2023-05-23T01:14:02;93467.03;;;15.42;58.43
20037;BME280;10179;42.640;23.312;2023-05-23T01:16:46;93473.38;;;15.41;58.07
20037;BME280;10179;42.640;23.312;2023-05-23T01:19:19;93579.03;;;16.06;58.02
20037;BME280;10179;42.640;23.312;2023-05-23T01:21:52;93544.53;;;15.85;58.38
20037;BME280;10179;42.640;23.312;2023-05-23T01:24:34;93570.03;;;16.07;57.98
20037;BME280;10179;42.640;23.312;2023-05-23T01:29:33;93563.66;;;15.97;57.88
20037;BME280;10179;42.640;23.312;2023-05-23T01:32:00;93523.81;;;15.67;57.90
20037;BME280;10179;42.640;23.312;2023-05-23T01:34:27;93146.88;;;13.18;57.81
20037;BME280;10179;42.640;23.312;2023-05-23T01:36:55;93558.81;;;15.84;57.91
20037;BME280;10179;42.640;23.312;2023-05-23T01:39:21;93560.41;;;15.85;58.51
20037;BME280;10179;42.640;23.312;2023-05-23T01:41:48;93553.28;;;15.91;58.85
20037;BME280;10179;42.640;23.312;2023-05-23T01:44:14;93534.72;;;15.86;58.63
20037;BME280;10179;42.640;23.312;2023-05-23T01:46:40;93558.91;;;16.05;58.73
20037;BME280;10179;42.640;23.312;2023-05-23T01:49:10;93567.41;;;16.12;58.93
20037;BME280;10179;42.640;23.312;2023-05-23T01:51:37;93530.25;;;15.96;58.69
20037;BME280;10179;42.640;23.312;2023-05-23T01:54:03;93564.22;;;16.15;58.22
20037;BME280;10179;42.640;23.312;2023-05-23T01:56:28;93550.44;;;16.13;58.30
20037;BME280;10179;42.640;23.312;2023-05-23T01:58:54;93556.78;;;16.07;58.01
20037;BME280;10179;42.640;23.312;2023-05-23T02:01:20;93552.00;;;16.04;57.99
20037;BME280;10179;42.640;23.312;2023-05-23T02:03:45;93408.91;;;15.05;57.98
20037;BME280;10179;42.640;23.312;2023-05-23T02:06:11;93555.38;;;15.89;57.97
20037;BME280;10179;42.640;23.312;2023-05-23T02:08:36;93545.75;;;15.62;58.42
20037;BME280;10179;42.640;23.312;2023-05-23T02:11:02;93460.63;;;15.28;58.24
20037;BME280;10179;42.640;23.312;2023-05-23T02:13:27;93479.19;;;15.43;58.33
20037;BME280;10179;42.640;23.312;2023-05-23T02:15:53;93479.19;;;15.43;58.52
20037;BME280;10179;42.640;23.312;2023-05-23T02:18:19;93468.00;;;15.21;58.63
20037;BME280;10179;42.640;23.312;2023-05-23T02:20:45;93522.91;;;15.51;58.57
20037;BME280;10179;42.640;23.312;2023-05-23T02:23:10;93357.72;;;14.69;58.32
20037;BME280;10179;42.640;23.312;2023-05-23T02:25:35;93554.88;;;15.92;58.21
20037;BME280;10179;42.640;23.312;2023-05-23T02:28:01;93517.41;;;15.63;58.37
20037;BME280;10179;42.640;23.312;2023-05-23T02:30:26;93557.53;;;15.87;58.29
20037;BME280;10179;42.640;23.312;2023-05-23T02:32:52;93517.94;;;15.65;58.43
20037;BME280;10179;42.640;23.312;2023-05-23T02:35:17;93466.97;;;15.32;58.04
20037;BME280;10179;42.640;23.312;2023-05-23T02:37:42;93548.22;;;15.84;58.28
20037;BME280;10179;42.640;23.312;2023-05-23T02:40:08;93540.25;;;15.79;58.36
20037;BME280;10179;42.640;23.312;2023-05-23T02:42:34;93505.72;;;15.54;58.04
20037;BME280;10179;42.640;23.312;2023-05-23T02:44:59;93533.09;;;15.74;58.05
20037;BME280;10179;42.640;23.312;2023-05-23T02:47:25;93438.06;;;15.10;58.02
20037;BME280;10179;42.640;23.312;2023-05-23T02:49:51;93465.34;;;15.21;58.02
20037;BME280;10179;42.640;23.312;2023-05-23T02:52:16;93529.03;;;15.62;58.26
20037;BME280;10179;42.640;23.312;2023-05-23T02:54:41;93527.91;;;15.47;58.48
20037;BME280;10179;42.640;23.312;2023-05-23T02:57:07;93538.03;;;15.61;58.38
20037;BME280;10179;42.640;23.312;2023-05-23T02:59:32;93539.09;;;15.60;58.24
20037;BME280;10179;42.640;23.312;2023-05-23T03:01:58;93498.75;;;15.32;58.38
20037;BME280;10179;42.640;23.312;2023-05-23T03:04:23;93512.25;;;15.41;58.14
20037;BME280;10179;42.640;23.312;2023-05-23T03:06:49;93483.88;;;15.26;58.09
20037;BME280;10179;42.640;23.312;2023-05-23T03:09:19;93545.75;;;15.62;58.22
20037;BME280;10179;42.640;23.312;2023-05-23T03:11:44;93499.25;;;15.29;58.07
20037;BME280;10179;42.640;23.312;2023-05-23T03:14:10;93441.38;;;14.85;58.14
20037;BME280;10179;42.640;23.312;2023-05-23T03:16:35;93539.53;;;15.41;58.20
20037;BME280;10179;42.640;23.312;2023-05-23T03:19:00;93546.06;;;15.66;58.07
20037;BME280;10179;42.640;23.312;2023-05-23T03:21:26;93294.47;;;14.04;58.03
20037;BME280;10179;42.640;23.312;2023-05-23T03:23:51;93544.13;;;15.61;58.05
20037;BME280;10179;42.640;23.312;2023-05-23T03:26:17;93562.41;;;15.63;58.47
20037;BME280;10179;42.640;23.312;2023-05-23T03:28:42;93549.41;;;15.61;58.69
20037;BME280;10179;42.640;23.312;2023-05-23T03:31:07;93558.16;;;15.62;58.63
20037;BME280;10179;42.640;23.312;2023-05-23T03:33:33;93536.41;;;15.49;58.86
20037;BME280;10179;42.640;23.312;2023-05-23T03:35:58;93512.53;;;15.34;58.67
20037;BME280;10179;42.640;23.312;2023-05-23T03:38:23;93575.38;;;15.64;58.93
20037;BME280;10179;42.640;23.312;2023-05-23T03:40:49;93529.75;;;15.42;59.25
20037;BME280;10179;42.640;23.312;2023-05-23T03:43:14;93578.91;;;15.70;59.23
20037;BME280;10179;42.640;23.312;2023-05-23T03:45:40;93537.47;;;15.54;59.50
20037;BME280;10179;42.640;23.312;2023-05-23T03:48:05;93420.44;;;14.78;59.18
20037;BME280;10179;42.640;23.312;2023-05-23T03:50:31;93535.97;;;15.68;58.91
20037;BME280;10179;42.640;23.312;2023-05-23T03:52:56;93571.03;;;15.95;58.82
20037;BME280;10179;42.640;23.312;2023-05-23T03:55:22;93538.16;;;15.81;58.82
20037;BME280;10179;42.640;23.312;2023-05-23T03:57:48;93473.38;;;15.41;58.71
20037;BME280;10179;42.640;23.312;2023-05-23T04:00:14;93588.88;;;16.20;58.34
20037;BME280;10179;42.640;23.312;2023-05-23T04:02:39;93569.84;;;16.29;58.54
20037;BME280;10179;42.640;23.312;2023-05-23T04:05:05;93573.28;;;16.34;58.29
20037;BME280;10179;42.640;23.312;2023-05-23T04:07:32;93522.56;;;15.95;58.00
20037;BME280;10179;42.640;23.312;2023-05-23T04:10:01;93519.66;;;15.96;57.73
20037;BME280;10179;42.640;23.312;2023-05-23T04:12:26;93428.09;;;15.33;57.83
20037;BME280;10179;42.640;23.312;2023-05-23T04:14:54;93272.41;;;14.31;58.24
20037;BME280;10179;42.640;23.312;2023-05-23T04:17:20;93410.31;;;15.23;58.05
20037;BME280;10179;42.640;23.312;2023-05-23T04:19:46;93447.19;;;15.50;58.65
20037;BME280;10179;42.640;23.312;2023-05-23T04:22:12;93592.63;;;16.30;58.52
20037;BME280;10179;42.640;23.312;2023-05-23T04:24:37;93190.84;;;13.82;58.38
20037;BME280;10179;42.640;23.312;2023-05-23T04:27:03;93484.63;;;15.69;58.34
20037;BME280;10179;42.640;23.312;2023-05-23T04:29:28;93583.31;;;16.17;58.88
20037;BME280;10179;42.640;23.312;2023-05-23T04:31:56;93566.34;;;16.08;58.98
20037;BME280;10179;42.640;23.312;2023-05-23T04:34:21;93571.59;;;16.03;59.57
20037;BME280;10179;42.640;23.312;2023-05-23T04:36:47;93568.44;;;16.01;59.65
20037;BME280;10179;42.640;23.312;2023-05-23T04:39:13;93584.81;;;15.92;60.17
20037;BME280;10179;42.640;23.312;2023-05-23T04:41:41;93581.09;;;15.88;60.59
20037;BME280;10179;42.640;23.312;2023-05-23T04:44:08;93324.09;;;14.17;60.59
20037;BME280;10179;42.640;23.312;2023-05-23T04:46:34;93584.75;;;15.77;61.09
20037;BME280;10179;42.640;23.312;2023-05-23T04:49:01;93542.75;;;15.48;61.37
20037;BME280;10179;42.640;23.312;2023-05-23T04:51:26;93582.09;;;15.82;61.69
20037;BME280;10179;42.640;23.312;2023-05-23T04:53:52;93553.41;;;15.64;61.62
20037;BME280;10179;42.640;23.312;2023-05-23T04:56:17;93611.28;;;15.87;61.84
20037;BME280;10179;42.640;23.312;2023-05-23T04:58:45;93510.91;;;15.33;61.85
20037;BME280;10179;42.640;23.312;2023-05-23T05:01:11;93576.97;;;15.65;62.01
20037;BME280;10179;42.640;23.312;2023-05-23T05:03:38;93595.94;;;15.94;61.86
20037;BME280;10179;42.640;23.312;2023-05-23T05:06:03;93595.44;;;15.97;62.21
20037;BME280;10179;42.640;23.312;2023-05-23T05:08:30;93574.16;;;15.77;62.16
20037;BME280;10179;42.640;23.312;2023-05-23T05:10:55;93533.03;;;15.64;61.89
20037;BME280;10179;42.640;23.312;2023-05-23T05:13:21;93592.78;;;16.03;61.72
20037;BME280;10179;42.640;23.312;2023-05-23T05:15:46;93597.03;;;15.98;61.85
20037;BME280;10179;42.640;23.312;2023-05-23T05:18:12;93567.28;;;15.81;62.11
20037;BME280;10179;42.640;23.312;2023-05-23T05:20:37;93601.56;;;16.08;62.26
20037;BME280;10179;42.640;23.312;2023-05-23T05:23:03;93240.97;;;13.77;62.43
20037;BME280;10179;42.640;23.312;2023-05-23T05:25:28;93601.31;;;16.15;62.44
20037;BME280;10179;42.640;23.312;2023-05-23T05:27:59;93483.41;;;15.34;62.44
20037;BME280;10179;42.640;23.312;2023-05-23T05:30:27;93604.78;;;16.20;62.53
20037;BME280;10179;42.640;23.312;2023-05-23T05:32:52;93588.31;;;16.13;62.13
20037;BME280;10179;42.640;23.312;2023-05-23T05:35:17;93601.38;;;16.25;62.38
20037;BME280;10179;42.640;23.312;2023-05-23T05:37:43;93611.97;;;16.25;62.16
20037;BME280;10179;42.640;23.312;2023-05-23T05:40:08;93601.06;;;16.21;62.28
20037;BME280;10179;42.640;23.312;2023-05-23T05:42:34;93576.94;;;16.13;62.59
20037;BME280;10179;42.640;23.312;2023-05-23T05:44:59;93568.72;;;16.14;62.12
20037;BME280;10179;42.640;23.312;2023-05-23T05:47:25;93536.63;;;16.01;62.38
20037;BME280;10179;42.640;23.312;2023-05-23T05:49:51;93612.53;;;16.53;62.09
20037;BME280;10179;42.640;23.312;2023-05-23T05:52:16;93480.31;;;15.58;61.73
20037;BME280;10179;42.640;23.312;2023-05-23T05:54:42;93587.06;;;16.36;61.80
20037;BME280;10179;42.640;23.312;2023-05-23T05:57:07;93623.72;;;16.65;62.27
20037;BME280;10179;42.640;23.312;2023-05-23T05:59:32;93610.47;;;16.65;62.37
20037;BME280;10179;42.640;23.312;2023-05-23T06:01:58;93544.38;;;16.38;62.39
20037;BME280;10179;42.640;23.312;2023-05-23T06:04:23;93519.75;;;16.37;62.52
20037;BME280;10179;42.640;23.312;2023-05-23T06:06:49;93608.91;;;17.15;62.64
20037;BME280;10179;42.640;23.312;2023-05-23T06:09:15;93606.78;;;17.32;62.55
20037;BME280;10179;42.640;23.312;2023-05-23T06:11:40;93578.38;;;17.33;62.14
20037;BME280;10179;42.640;23.312;2023-05-23T06:14:06;93611.25;;;17.68;60.87
20037;BME280;10179;42.640;23.312;2023-05-23T06:16:32;93536.16;;;17.36;60.43
20037;BME280;10179;42.640;23.312;2023-05-23T06:18:57;93592.88;;;17.92;59.80
20037;BME280;10179;42.640;23.312;2023-05-23T06:21:22;93615.63;;;18.18;59.17
20037;BME280;10179;42.640;23.312;2023-05-23T06:23:48;93444.34;;;17.25;58.22
20037;BME280;10179;42.640;23.312;2023-05-23T06:26:13;93618.66;;;18.51;57.77
20037;BME280;10179;42.640;23.312;2023-05-23T06:28:38;93618.63;;;18.61;56.99
20037;BME280;10179;42.640;23.312;2023-05-23T06:31:04;93575.69;;;18.33;56.66
20037;BME280;10179;42.640;23.312;2023-05-23T06:33:30;93628.38;;;18.71;56.00
20037;BME280;10179;42.640;23.312;2023-05-23T06:35:56;93626.56;;;18.71;56.00
20037;BME280;10179;42.640;23.312;2023-05-23T06:38:21;93633.69;;;18.71;55.95
20037;BME280;10179;42.640;23.312;2023-05-23T06:40:47;93596.31;;;18.52;55.86
20037;BME280;10179;42.640;23.312;2023-05-23T06:43:12;93633.66;;;18.81;55.94
20037;BME280;10179;42.640;23.312;2023-05-23T06:45:37;93581.91;;;18.58;56.31
20037;BME280;10179;42.640;23.312;2023-05-23T06:48:03;93623.06;;;19.15;55.90
20037;BME280;10179;42.640;23.312;2023-05-23T06:50:29;93621.88;;;19.31;55.71
20037;BME280;10179;42.640;23.312;2023-05-23T06:52:54;93599.69;;;19.41;56.03
20037;BME280;10179;42.640;23.312;2023-05-23T06:55:20;93537.13;;;19.34;54.82
20037;BME280;10179;42.640;23.312;2023-05-23T06:57:46;93568.53;;;19.90;53.62
20037;BME280;10179;42.640;23.312;2023-05-23T07:00:12;93607.28;;;20.49;51.87
20037;BME280;10179;42.640;23.312;2023-05-23T07:02:38;93608.47;;;20.81;51.37
20037;BME280;10179;42.640;23.312;2023-05-23T07:05:03;93472.25;;;20.34;50.88
20037;BME280;10179;42.640;23.312;2023-05-23T07:07:29;93598.41;;;21.48;49.68
20037;BME280;10179;42.640;23.312;2023-05-23T07:09:54;93572.16;;;21.64;48.89
20037;BME280;10179;42.640;23.312;2023-05-23T07:12:20;93548.63;;;21.80;48.01
20037;BME280;10179;42.640;23.312;2023-05-23T07:14:45;93585.47;;;22.24;47.36
20037;BME280;10179;42.640;23.312;2023-05-23T07:17:11;93526.53;;;22.02;47.00
20037;BME280;10179;42.640;23.312;2023-05-23T07:19:36;93599.91;;;22.65;46.81
20037;BME280;10179;42.640;23.312;2023-05-23T07:22:02;93590.25;;;22.77;45.32
20037;BME280;10179;42.640;23.312;2023-05-23T07:24:27;93551.72;;;22.65;43.96
20037;BME280;10179;42.640;23.312;2023-05-23T07:26:53;93560.72;;;22.91;44.67
20037;BME280;10179;42.640;23.312;2023-05-23T07:29:18;93560.88;;;23.08;45.10
20037;BME280;10179;42.640;23.312;2023-05-23T07:31:43;93481.88;;;22.75;44.85
20037;BME280;10179;42.640;23.312;2023-05-23T07:34:10;93588.81;;;23.61;44.25
20037;BME280;10179;42.640;23.312;2023-05-23T07:36:35;93436.16;;;22.94;43.61
20037;BME280;10179;42.640;23.312;2023-05-23T07:39:02;93585.56;;;24.04;42.50
20037;BME280;10179;42.640;23.312;2023-05-23T07:41:27;93576.16;;;24.15;42.21
20037;BME280;10179;42.640;23.312;2023-05-23T07:43:53;93567.47;;;24.27;42.06
20037;BME280;10179;42.640;23.312;2023-05-23T07:46:18;93588.91;;;24.58;41.31
20037;BME280;10179;42.640;23.312;2023-05-23T07:48:44;93574.53;;;24.80;40.54
20037;BME280;10179;42.640;23.312;2023-05-23T07:51:09;93517.66;;;24.61;40.05
20037;BME280;10179;42.640;23.312;2023-05-23T07:53:35;93576.16;;;25.16;39.61
20037;BME280;10179;42.640;23.312;2023-05-23T07:56:04;93517.63;;;25.13;39.29
20037;BME280;10179;42.640;23.312;2023-05-23T07:58:30;93574.63;;;25.79;38.78
20037;BME280;10179;42.640;23.312;2023-05-23T08:00:55;93575.59;;;26.13;38.74
20037;BME280;10179;42.640;23.312;2023-05-23T08:03:22;93460.56;;;25.63;37.51
20037;BME280;10179;42.640;23.312;2023-05-23T08:05:47;93579.41;;;26.50;37.56
20037;BME280;10179;42.640;23.312;2023-05-23T08:08:13;93551.66;;;26.50;37.06
20037;BME280;10179;42.640;23.312;2023-05-23T08:10:38;93574.50;;;26.73;35.99
20037;BME280;10179;42.640;23.312;2023-05-23T08:13:04;93572.06;;;26.80;36.83
20037;BME280;10179;42.640;23.312;2023-05-23T08:15:31;93566.81;;;27.05;36.00
20037;BME280;10179;42.640;23.312;2023-05-23T08:17:58;93566.56;;;27.19;35.49
20037;BME280;10179;42.640;23.312;2023-05-23T08:20:24;93547.91;;;27.14;35.25
20037;BME280;10179;42.640;23.312;2023-05-23T08:22:59;93570.97;;;27.56;35.06
20037;BME280;10179;42.640;23.312;2023-05-23T08:25:25;93573.66;;;27.90;33.32
20037;BME280;10179;42.640;23.312;2023-05-23T08:27:55;93554.88;;;28.05;34.40
20037;BME280;10179;42.640;23.312;2023-05-23T08:30:22;93490.63;;;27.87;32.52
20037;BME280;10179;42.640;23.312;2023-05-23T08:32:47;93534.75;;;28.52;32.76
20037;BME280;10179;42.640;23.312;2023-05-23T08:35:13;93530.91;;;28.53;32.77
20037;BME280;10179;42.640;23.312;2023-05-23T08:37:38;93537.75;;;28.63;31.99
20037;BME280;10179;42.640;23.312;2023-05-23T08:40:06;93511.09;;;28.37;32.27
20037;BME280;10179;42.640;23.312;2023-05-23T08:42:32;93427.19;;;27.93;32.48
20037;BME280;10179;42.640;23.312;2023-05-23T08:44:58;93561.94;;;28.84;31.78
20037;BME280;10179;42.640;23.312;2023-05-23T08:47:23;93520.31;;;28.60;31.74
20037;BME280;10179;42.640;23.312;2023-05-23T08:49:51;93519.50;;;28.72;32.21
20037;BME280;10179;42.640;23.312;2023-05-23T08:52:20;93555.03;;;28.98;31.12
20037;BME280;10179;42.640;23.312;2023-05-23T08:54:47;93555.84;;;28.87;30.66
20037;BME280;10179;42.640;23.312;2023-05-23T08:57:13;93565.47;;;28.72;30.84
20037;BME280;10179;42.640;23.312;2023-05-23T08:59:38;93502.31;;;28.27;29.41
20037;BME280;10179;42.640;23.312;2023-05-23T09:02:07;93521.25;;;28.15;31.41
20037;BME280;10179;42.640;23.312;2023-05-23T09:04:35;93557.50;;;28.51;31.89
20037;BME280;10179;42.640;23.312;2023-05-23T09:07:01;93464.06;;;27.76;30.35
20037;BME280;10179;42.640;23.312;2023-05-23T09:09:27;93501.22;;;27.92;29.50
20037;BME280;10179;42.640;23.312;2023-05-23T09:11:54;93482.75;;;27.81;28.64
20037;BME280;10179;42.640;23.312;2023-05-23T09:14:19;93536.31;;;28.04;29.08
20037;BME280;10179;42.640;23.312;2023-05-23T09:16:46;93473.03;;;27.56;28.64
20037;BME280;10179;42.640;23.312;2023-05-23T09:19:14;93562.75;;;28.11;28.17
20037;BME280;10179;42.640;23.312;2023-05-23T09:21:43;93542.59;;;27.96;28.56
20037;BME280;10179;42.640;23.312;2023-05-23T09:24:10;93451.53;;;27.35;28.76
20037;BME280;10179;42.640;23.312;2023-05-23T09:26:36;93483.41;;;27.66;27.88
20037;BME280;10179;42.640;23.312;2023-05-23T09:29:04;93472.72;;;27.70;27.47
20037;BME280;10179;42.640;23.312;2023-05-23T09:31:31;93545.66;;;28.31;27.94
20037;BME280;10179;42.640;23.312;2023-05-23T09:33:57;93545.56;;;28.40;27.42
20037;BME280;10179;42.640;23.312;2023-05-23T09:36:26;93447.00;;;27.85;27.66
20037;BME280;10179;42.640;23.312;2023-05-23T09:39:01;93563.34;;;28.53;26.44
20037;BME280;10179;42.640;23.312;2023-05-23T09:41:29;93483.66;;;28.10;25.97
20037;BME280;10179;42.640;23.312;2023-05-23T09:43:57;93254.91;;;26.60;25.59
20037;BME280;10179;42.640;23.312;2023-05-23T09:46:27;93543.09;;;28.47;26.30
20037;BME280;10179;42.640;23.312;2023-05-23T09:48:52;93544.09;;;28.30;26.39
20037;BME280;10179;42.640;23.312;2023-05-23T09:51:21;93516.06;;;27.98;26.99
20037;BME280;10179;42.640;23.312;2023-05-23T09:53:47;93538.56;;;28.26;26.99
20037;BME280;10179;42.640;23.312;2023-05-23T09:56:14;93531.25;;;28.39;26.45
20037;BME280;10179;42.640;23.312;2023-05-23T09:58:45;93388.16;;;27.53;26.17
20037;BME280;10179;42.640;23.312;2023-05-23T10:01:10;93451.03;;;28.03;25.51
20037;BME280;10179;42.640;23.312;2023-05-23T10:03:44;93527.72;;;28.63;25.51
20037;BME280;10179;42.640;23.312;2023-05-23T10:06:24;93532.81;;;28.65;26.06
20037;BME280;10179;42.640;23.312;2023-05-23T10:09:15;93537.41;;;28.76;26.05
20037;BME280;10179;42.640;23.312;2023-05-23T10:14:28;93528.13;;;28.90;25.96
20037;BME280;10179;42.640;23.312;2023-05-23T10:16:59;93482.66;;;28.67;25.54
20037;BME280;10179;42.640;23.312;2023-05-23T10:19:43;93530.09;;;29.17;24.56
20037;BME280;10179;42.640;23.312;2023-05-23T10:22:11;93527.78;;;29.32;23.71
20037;BME280;10179;42.640;23.312;2023-05-23T10:24:38;93527.66;;;29.56;22.93
20037;BME280;10179;42.640;23.312;2023-05-23T10:27:05;93505.41;;;29.79;23.15
20037;BME280;10179;42.640;23.312;2023-05-23T10:29:31;93465.66;;;29.83;23.05
20037;BME280;10179;42.640;23.312;2023-05-23T10:31:58;93509.94;;;30.38;23.57
20037;BME280;10179;42.640;23.312;2023-05-23T10:37:28;93502.34;;;30.63;22.08
20037;BME280;10179;42.640;23.312;2023-05-23T10:42:54;93509.06;;;31.04;22.74
20037;BME280;10179;42.640;23.312;2023-05-23T10:45:22;93508.88;;;31.17;22.01
20037;BME280;10179;42.640;23.312;2023-05-23T10:47:50;93476.19;;;31.09;21.93
20037;BME280;10179;42.640;23.312;2023-05-23T10:50:33;93416.22;;;30.95;21.99
20037;BME280;10179;42.640;23.312;2023-05-23T10:53:00;93471.47;;;31.45;22.08
20037;BME280;10179;42.640;23.312;2023-05-23T10:55:33;93397.09;;;31.07;22.32
20037;BME280;10179;42.640;23.312;2023-05-23T11:00:54;93496.22;;;31.86;21.67
20037;BME280;10179;42.640;23.312;2023-05-23T11:05:58;93465.63;;;31.89;20.23
20037;BME280;10179;42.640;23.312;2023-05-23T11:08:24;93462.03;;;31.85;20.34
20037;BME280;10179;42.640;23.312;2023-05-23T11:10:58;93237.59;;;30.32;20.64
20037;BME280;10179;42.640;23.312;2023-05-23T11:13:24;93494.59;;;31.81;20.99
20037;BME280;10179;42.640;23.312;2023-05-23T11:15:50;93487.88;;;31.75;20.95
20037;BME280;10179;42.640;23.312;2023-05-23T11:18:21;93455.91;;;31.42;20.84
20037;BME280;10179;42.640;23.312;2023-05-23T11:20:49;93487.75;;;31.06;20.34
20037;BME280;10179;42.640;23.312;2023-05-23T11:23:15;93486.16;;;30.66;21.50
20037;BME280;10179;42.640;23.312;2023-05-23T11:25:46;93425.31;;;29.78;21.80
20037;BME280;10179;42.640;23.312;2023-05-23T11:28:13;93347.09;;;28.65;22.72
20037;BME280;10179;42.640;23.312;2023-05-23T11:30:39;93472.00;;;28.99;23.33
20037;BME280;10179;42.640;23.312;2023-05-23T11:33:07;93433.44;;;28.21;23.64
20037;BME280;10179;42.640;23.312;2023-05-23T11:35:44;93482.94;;;28.50;23.16
20037;BME280;10179;42.640;23.312;2023-05-23T11:38:10;93421.19;;;27.50;24.47
20037;BME280;10179;42.640;23.312;2023-05-23T11:40:36;93477.50;;;27.52;24.82
20037;BME280;10179;42.640;23.312;2023-05-23T11:43:04;93470.78;;;27.12;24.84
20037;BME280;10179;42.640;23.312;2023-05-23T11:45:31;93467.44;;;26.82;25.57
20037;BME280;10179;42.640;23.312;2023-05-23T11:47:57;93298.88;;;25.56;25.53
20037;BME280;10179;42.640;23.312;2023-05-23T11:50:23;93289.06;;;25.30;26.15
20037;BME280;10179;42.640;23.312;2023-05-23T11:52:49;93468.34;;;26.45;26.32
20037;BME280;10179;42.640;23.312;2023-05-23T11:55:20;93421.22;;;26.09;26.02
20037;BME280;10179;42.640;23.312;2023-05-23T11:57:47;93358.91;;;25.68;26.30
20037;BME280;10179;42.640;23.312;2023-05-23T12:00:13;93451.44;;;26.35;26.01
20037;BME280;10179;42.640;23.312;2023-05-23T12:02:40;93246.03;;;25.00;25.63
20037;BME280;10179;42.640;23.312;2023-05-23T12:05:10;93454.25;;;26.18;25.70
20037;BME280;10179;42.640;23.312;2023-05-23T12:07:47;93339.59;;;25.45;26.23
20037;BME280;10179;42.640;23.312;2023-05-23T12:10:14;93344.44;;;25.31;26.59
20037;BME280;10179;42.640;23.312;2023-05-23T12:12:46;93453.78;;;25.95;28.00
20037;BME280;10179;42.640;23.312;2023-05-23T12:15:13;93305.16;;;25.00;27.04
20037;BME280;10179;42.640;23.312;2023-05-23T12:17:45;93368.00;;;25.26;26.32
20037;BME280;10179;42.640;23.312;2023-05-23T12:20:11;93441.94;;;25.79;26.25
20037;BME280;10179;42.640;23.312;2023-05-23T12:22:37;93440.09;;;25.70;26.06
20037;BME280;10179;42.640;23.312;2023-05-23T12:25:02;93431.91;;;25.67;26.70
20037;BME280;10179;42.640;23.312;2023-05-23T12:27:33;93423.81;;;25.67;26.45
20037;BME280;10179;42.640;23.312;2023-05-23T12:30:15;93428.56;;;25.70;27.23
20037;BME280;10179;42.640;23.312;2023-05-23T12:32:42;93426.31;;;25.72;27.57
20037;BME280;10179;42.640;23.312;2023-05-23T12:35:08;93368.28;;;25.41;27.12
20037;BME280;10179;42.640;23.312;2023-05-23T12:37:38;93415.22;;;25.82;27.38
20037;BME280;10179;42.640;23.312;2023-05-23T12:40:16;93427.38;;;25.88;27.54
20037;BME280;10179;42.640;23.312;2023-05-23T12:42:51;93406.31;;;25.90;27.15
20037;BME280;10179;42.640;23.312;2023-05-23T12:45:31;93286.63;;;25.08;27.63
20037;BME280;10179;42.640;23.312;2023-05-23T12:48:07;93350.38;;;25.45;27.08
20037;BME280;10179;42.640;23.312;2023-05-23T12:50:33;93381.78;;;25.54;27.64
20037;BME280;10179;42.640;23.312;2023-05-23T12:52:58;93414.44;;;25.82;27.89
20037;BME280;10179;42.640;23.312;2023-05-23T12:55:24;93411.41;;;25.83;27.62
20037;BME280;10179;42.640;23.312;2023-05-23T12:57:49;93306.50;;;25.24;27.88
20037;BME280;10179;42.640;23.312;2023-05-23T13:00:15;93373.16;;;25.69;27.37
20037;BME280;10179;42.640;23.312;2023-05-23T13:02:41;93391.09;;;25.94;27.59
20037;BME280;10179;42.640;23.312;2023-05-23T13:05:06;93393.56;;;26.00;27.65